Time;durP1;ratioP1;P1;durP2;ratioP2;P2;SDS_P1;SDS_P2;PMS_P1;PMS_P2;Temp;Humidity;BMP_temperature;BMP_pressure;BME280_temperature;BME280_humidity;BME280_pressure;Samples;Min_cycle;Max_cycle;Signal;HPM_P1;HPM_P2
2023/08/16 00:00:17;;;;;;;2.83;1.90;;;;;;;;;;5068889;28;20454;-70
2023/08/16 00:02:45;;;;;;;2.43;1.27;;;;;;;;;;5071674;28;20905;-71
2023/08/16 00:05:14;;;;;;;4.33;1.63;;;;;;;;;;5065157;28;20458;-71
2023/08/16 00:07:41;;;;;;;5.10;1.67;;;;;;;;;;5069067;28;21001;-71
2023/08/16 00:10:11;;;;;;;2.60;1.60;;;;;;;;;;5068131;28;20464;-70
2023/08/16 00:12:38;;;;;;;2.80;1.87;;;;;;;;;;5070250;28;20458;-71
2023/08/16 00:15:07;;;;;;;2.47;1.80;;;;;;;;;;5063148;28;20458;-70
2023/08/16 00:17:34;;;;;;;2.87;1.80;;;;;;;;;;5063461;28;20453;-69
2023/08/16 00:20:04;;;;;;;2.63;1.43;;;;;;;;;;5071680;28;20811;-70
2023/08/16 00:22:31;;;;;;;5.00;2.30;;;;;;;;;;5069008;28;20923;-71
2023/08/16 00:24:58;;;;;;;3.17;1.80;;;;;;;;;;5065564;28;20845;-69
2023/08/16 00:27:25;;;;;;;2.90;1.70;;;;;;;;;;5064517;28;20430;-68
2023/08/16 00:29:52;;;;;;;2.63;1.70;;;;;;;;;;5065667;28;20464;-70
2023/08/16 00:32:20;;;;;;;2.73;1.97;;;;;;;;;;5070061;28;20567;-69
2023/08/16 00:34:47;;;;;;;3.00;1.60;;;;;;;;;;5073332;28;20465;-69
2023/08/16 00:37:15;;;;;;;3.10;1.83;;;;;;;;;;5067025;28;20473;-70
2023/08/16 00:39:43;;;;;;;3.93;2.03;;;;;;;;;;5072814;28;20457;-72
2023/08/16 00:42:12;;;;;;;2.90;2.20;;;;;;;;;;5074870;28;20982;-71
2023/08/16 00:44:39;;;;;;;2.80;2.13;;;;;;;;;;5065982;28;20457;-71
2023/08/16 00:47:05;;;;;;;5.50;1.70;;;;;;;;;;5070293;28;20457;-71
2023/08/16 00:49:33;;;;;;;5.23;2.63;;;;;;;;;;5074314;28;20449;-71
2023/08/16 00:52:01;;;;;;;4.50;3.00;;;;;;;;;;5074959;28;20457;-72
2023/08/16 00:54:30;;;;;;;3.53;2.30;;;;;;;;;;5069442;28;20458;-70
2023/08/16 00:56:58;;;;;;;2.70;1.80;;;;;;;;;;5069417;28;20476;-71
2023/08/16 00:59:26;;;;;;;3.10;1.60;;;;;;;;;;5070953;28;20454;-70
2023/08/16 01:01:53;;;;;;;4.07;1.70;;;;;;;;;;5070919;28;20477;-70
2023/08/16 01:04:20;;;;;;;3.10;1.90;;;;;;;;;;5071200;28;20468;-71
2023/08/16 01:06:47;;;;;;;2.73;1.83;;;;;;;;;;5073620;28;20457;-70
2023/08/16 01:09:15;;;;;;;3.80;1.63;;;;;;;;;;5072770;28;20476;-70
2023/08/16 01:11:47;;;;;;;2.20;1.40;;;;;;;;;;5069745;28;20458;-71
2023/08/16 01:14:16;;;;;;;3.37;1.70;;;;;;;;;;5071944;28;20472;-70
2023/08/16 01:16:46;;;;;;;3.37;1.80;;;;;;;;;;5065382;28;20486;-71
2023/08/16 01:19:15;;;;;;;4.10;2.00;;;;;;;;;;5072135;28;20462;-70
2023/08/16 01:21:44;;;;;;;4.00;2.10;;;;;;;;;;5068917;28;20461;-71
2023/08/16 01:24:18;;;;;;;2.67;1.90;;;;;;;;;;5069182;28;20457;-69
2023/08/16 01:26:48;;;;;;;3.97;1.80;;;;;;;;;;5070938;28;20482;-71
2023/08/16 01:29:17;;;;;;;3.20;1.70;;;;;;;;;;5071529;28;20486;-70
2023/08/16 01:31:44;;;;;;;2.37;1.57;;;;;;;;;;5066230;28;20488;-71
2023/08/16 01:34:11;;;;;;;2.87;1.63;;;;;;;;;;5065777;28;21033;-71
2023/08/16 01:36:39;;;;;;;3.27;2.00;;;;;;;;;;5068220;28;21000;-71
2023/08/16 01:39:06;;;;;;;2.33;1.73;;;;;;;;;;5071193;28;20434;-71
2023/08/16 01:41:36;;;;;;;3.37;2.20;;;;;;;;;;5073682;28;20483;-70
2023/08/16 01:44:04;;;;;;;3.03;2.73;;;;;;;;;;5068490;28;20426;-71
2023/08/16 01:46:33;;;;;;;2.43;1.60;;;;;;;;;;5065756;28;20813;-71
2023/08/16 01:49:01;;;;;;;3.13;2.13;;;;;;;;;;5072887;28;20441;-71
2023/08/16 01:51:28;;;;;;;3.60;2.30;;;;;;;;;;5073003;28;20454;-71
2023/08/16 01:53:56;;;;;;;2.93;2.00;;;;;;;;;;5067519;28;20935;-71
2023/08/16 01:56:23;;;;;;;4.20;1.70;;;;;;;;;;5065439;28;20473;-71
2023/08/16 01:58:50;;;;;;;3.07;1.93;;;;;;;;;;5071816;28;20500;-71
2023/08/16 02:01:19;;;;;;;3.07;2.03;;;;;;;;;;5059693;28;20469;-71
2023/08/16 02:03:46;;;;;;;2.90;1.87;;;;;;;;;;5066681;28;20805;-71
2023/08/16 02:06:13;;;;;;;2.67;1.90;;;;;;;;;;5067234;28;20449;-71
2023/08/16 02:08:40;;;;;;;4.87;2.10;;;;;;;;;;5071203;28;20452;-71
2023/08/16 02:11:09;;;;;;;3.17;1.70;;;;;;;;;;5065004;28;20468;-71
2023/08/16 02:13:36;;;;;;;3.00;1.73;;;;;;;;;;5068934;28;20437;-71
2023/08/16 02:16:04;;;;;;;4.33;2.00;;;;;;;;;;5064299;28;21030;-70
2023/08/16 02:18:32;;;;;;;4.53;1.80;;;;;;;;;;5073408;28;20440;-71
2023/08/16 02:20:59;;;;;;;2.90;1.83;;;;;;;;;;5068187;28;20462;-72
2023/08/16 02:23:27;;;;;;;4.80;2.87;;;;;;;;;;5068509;28;20453;-71
2023/08/16 02:25:54;;;;;;;3.37;2.03;;;;;;;;;;5067946;28;20461;-71
2023/08/16 02:28:21;;;;;;;2.97;1.70;;;;;;;;;;5069274;28;20438;-69
2023/08/16 02:30:48;;;;;;;3.30;1.97;;;;;;;;;;5069296;28;20459;-71
2023/08/16 02:33:15;;;;;;;3.00;2.00;;;;;;;;;;5071656;28;21001;-69
2023/08/16 02:35:44;;;;;;;3.00;2.40;;;;;;;;;;5068125;28;20830;-69
2023/08/16 02:38:11;;;;;;;5.77;1.73;;;;;;;;;;5070766;28;20465;-70
2023/08/16 02:40:38;;;;;;;3.07;1.60;;;;;;;;;;5067045;28;20824;-69
2023/08/16 02:43:05;;;;;;;3.60;2.30;;;;;;;;;;5072260;28;20963;-71
2023/08/16 02:45:33;;;;;;;3.33;1.90;;;;;;;;;;5065505;28;20888;-70
2023/08/16 02:48:00;;;;;;;2.93;1.90;;;;;;;;;;5070021;28;20895;-70
2023/08/16 02:50:27;;;;;;;3.10;2.60;;;;;;;;;;5069694;28;20923;-69
2023/08/16 02:52:55;;;;;;;2.70;1.70;;;;;;;;;;5070499;28;20454;-70
2023/08/16 02:55:22;;;;;;;2.70;1.60;;;;;;;;;;5063792;28;20466;-71
2023/08/16 02:57:49;;;;;;;4.67;2.33;;;;;;;;;;5062308;28;20477;-71
2023/08/16 03:00:17;;;;;;;2.53;1.67;;;;;;;;;;5064661;28;20512;-71
2023/08/16 03:02:44;;;;;;;3.00;2.07;;;;;;;;;;5070772;28;20461;-70
2023/08/16 03:05:12;;;;;;;4.00;2.03;;;;;;;;;;5071603;28;20532;-72
2023/08/16 03:07:40;;;;;;;3.63;2.23;;;;;;;;;;5065481;28;20902;-71
2023/08/16 03:10:10;;;;;;;3.07;2.03;;;;;;;;;;5063527;28;20524;-70
2023/08/16 03:12:37;;;;;;;4.00;2.30;;;;;;;;;;5069549;28;20891;-72
2023/08/16 03:15:04;;;;;;;4.10;2.37;;;;;;;;;;5067037;28;20454;-70
2023/08/16 03:17:31;;;;;;;3.07;2.20;;;;;;;;;;5065077;28;20521;-71
2023/08/16 03:19:59;;;;;;;2.47;1.87;;;;;;;;;;5067722;28;20458;-71
2023/08/16 03:22:26;;;;;;;3.37;2.07;;;;;;;;;;5071068;28;20461;-71
2023/08/16 03:24:53;;;;;;;2.77;1.70;;;;;;;;;;5071442;28;20441;-71
2023/08/16 03:27:22;;;;;;;3.03;2.13;;;;;;;;;;5064014;28;20453;-70
2023/08/16 03:29:49;;;;;;;3.60;2.27;;;;;;;;;;5071069;28;20889;-70
2023/08/16 03:32:16;;;;;;;3.87;2.37;;;;;;;;;;5059423;28;20999;-72
2023/08/16 03:34:43;;;;;;;2.77;1.77;;;;;;;;;;5069533;28;20437;-71
2023/08/16 03:37:10;;;;;;;2.87;1.90;;;;;;;;;;5064011;28;20844;-72
2023/08/16 03:39:37;;;;;;;3.00;1.93;;;;;;;;;;5066079;28;20858;-71
2023/08/16 03:42:04;;;;;;;11.83;2.27;;;;;;;;;;5070874;28;20468;-69
2023/08/16 03:44:33;;;;;;;3.80;2.30;;;;;;;;;;5067056;28;20458;-71
2023/08/16 03:47:00;;;;;;;2.83;1.60;;;;;;;;;;5064341;28;20458;-71
2023/08/16 03:49:27;;;;;;;4.30;3.10;;;;;;;;;;5067795;28;20441;-69
2023/08/16 03:51:54;;;;;;;3.73;2.03;;;;;;;;;;5070985;28;20460;-71
2023/08/16 03:54:21;;;;;;;3.90;2.50;;;;;;;;;;5069273;28;20951;-70
2023/08/16 03:56:49;;;;;;;3.57;2.40;;;;;;;;;;5059615;28;20472;-71
2023/08/16 03:59:16;;;;;;;4.30;1.90;;;;;;;;;;5070184;28;20453;-69
2023/08/16 04:01:44;;;;;;;4.60;2.30;;;;;;;;;;5063508;28;20480;-71
2023/08/16 04:04:11;;;;;;;2.83;1.80;;;;;;;;;;5068182;28;20887;-71
2023/08/16 04:06:39;;;;;;;3.10;2.20;;;;;;;;;;5067463;28;20445;-72
2023/08/16 04:09:06;;;;;;;3.50;2.10;;;;;;;;;;5075420;28;20484;-72
2023/08/16 04:11:33;;;;;;;3.00;2.00;;;;;;;;;;5069054;28;20488;-71
2023/08/16 04:14:00;;;;;;;4.20;2.10;;;;;;;;;;5070793;28;20445;-71
2023/08/16 04:16:27;;;;;;;4.37;1.97;;;;;;;;;;5065896;28;20459;-72
2023/08/16 04:18:56;;;;;;;3.47;2.40;;;;;;;;;;5075519;28;20919;-71
2023/08/16 04:21:23;;;;;;;3.90;2.60;;;;;;;;;;5074353;28;20445;-71
2023/08/16 04:23:50;;;;;;;3.43;2.00;;;;;;;;;;5056472;28;20458;-72
2023/08/16 04:26:17;;;;;;;3.73;1.70;;;;;;;;;;5068312;28;20453;-71
2023/08/16 04:28:44;;;;;;;3.07;1.83;;;;;;;;;;5069279;28;20978;-70
2023/08/16 04:31:12;;;;;;;3.23;2.10;;;;;;;;;;5066994;28;20461;-72
2023/08/16 04:33:39;;;;;;;3.33;1.77;;;;;;;;;;5074965;28;20529;-71
2023/08/16 04:36:08;;;;;;;3.33;2.07;;;;;;;;;;5069929;28;20453;-70
2023/08/16 04:38:35;;;;;;;4.00;2.40;;;;;;;;;;5065903;28;20859;-72
2023/08/16 04:41:02;;;;;;;3.10;2.00;;;;;;;;;;5055139;28;20445;-71
2023/08/16 04:43:29;;;;;;;4.73;2.40;;;;;;;;;;5071975;28;20462;-71
2023/08/16 04:45:56;;;;;;;2.83;1.60;;;;;;;;;;5074338;28;20449;-71
2023/08/16 04:48:23;;;;;;;2.90;2.00;;;;;;;;;;5073458;28;20818;-71
2023/08/16 04:50:50;;;;;;;3.47;2.30;;;;;;;;;;5074540;28;20858;-71
2023/08/16 04:53:19;;;;;;;3.00;2.20;;;;;;;;;;5061499;28;20512;-70
2023/08/16 04:55:46;;;;;;;4.20;2.40;;;;;;;;;;5068658;28;20599;-71
2023/08/16 04:58:13;;;;;;;4.30;2.00;;;;;;;;;;5053349;28;20469;-70
2023/08/16 05:00:40;;;;;;;3.77;2.43;;;;;;;;;;5067197;28;20457;-71
2023/08/16 05:03:08;;;;;;;3.20;1.87;;;;;;;;;;5073526;28;20479;-70
2023/08/16 05:05:35;;;;;;;2.83;1.90;;;;;;;;;;5071533;28;20821;-70
2023/08/16 05:08:02;;;;;;;3.47;2.00;;;;;;;;;;5068886;28;20470;-69
2023/08/16 05:10:30;;;;;;;4.30;2.27;;;;;;;;;;5069471;28;20454;-68
2023/08/16 05:12:57;;;;;;;4.17;2.50;;;;;;;;;;5073603;28;20978;-71
2023/08/16 05:15:24;;;;;;;3.07;2.03;;;;;;;;;;5064747;28;20457;-71
2023/08/16 05:17:51;;;;;;;4.40;2.40;;;;;;;;;;5066431;28;20476;-72
2023/08/16 05:20:19;;;;;;;3.67;1.90;;;;;;;;;;5071527;28;20449;-71
2023/08/16 05:22:46;;;;;;;4.80;2.30;;;;;;;;;;5042991;28;20494;-70
2023/08/16 05:25:13;;;;;;;4.50;2.37;;;;;;;;;;5069794;28;20461;-71
2023/08/16 05:27:41;;;;;;;4.20;2.33;;;;;;;;;;5069052;28;20433;-71
2023/08/16 05:30:09;;;;;;;6.63;2.20;;;;;;;;;;5070086;28;20543;-71
2023/08/16 05:32:36;;;;;;;3.70;2.30;;;;;;;;;;5066571;28;20555;-69
2023/08/16 05:35:03;;;;;;;4.63;2.40;;;;;;;;;;5063155;28;20457;-69
2023/08/16 05:37:30;;;;;;;5.20;2.90;;;;;;;;;;5068204;28;20501;-68
2023/08/16 05:39:57;;;;;;;4.30;2.47;;;;;;;;;;5071005;28;20465;-72
2023/08/16 05:42:26;;;;;;;3.93;2.37;;;;;;;;;;5074018;28;20481;-72
2023/08/16 05:44:54;;;;;;;3.27;2.43;;;;;;;;;;5071293;28;20992;-71
2023/08/16 05:47:22;;;;;;;3.00;2.27;;;;;;;;;;5071220;28;20452;-71
2023/08/16 05:49:49;;;;;;;3.30;2.20;;;;;;;;;;5069716;28;20939;-72
2023/08/16 05:52:16;;;;;;;4.13;2.80;;;;;;;;;;5071846;28;20484;-71
2023/08/16 05:54:43;;;;;;;3.80;2.43;;;;;;;;;;5068053;28;20835;-72
2023/08/16 05:57:10;;;;;;;4.13;2.20;;;;;;;;;;5069170;28;20849;-70
2023/08/16 05:59:37;;;;;;;5.83;2.80;;;;;;;;;;5068292;28;20947;-70
2023/08/16 06:02:06;;;;;;;4.10;2.67;;;;;;;;;;5069876;28;20480;-69
2023/08/16 06:04:33;;;;;;;3.63;2.10;;;;;;;;;;5072620;28;20449;-70
2023/08/16 06:07:01;;;;;;;3.30;2.10;;;;;;;;;;5065969;28;20453;-70
2023/08/16 06:09:28;;;;;;;3.83;2.40;;;;;;;;;;5052413;28;20873;-69
2023/08/16 06:11:55;;;;;;;3.20;2.27;;;;;;;;;;5051134;28;20629;-70
2023/08/16 06:14:22;;;;;;;4.27;2.23;;;;;;;;;;5066199;28;20485;-70
2023/08/16 06:16:49;;;;;;;4.20;2.10;;;;;;;;;;5064161;28;20450;-71
2023/08/16 06:19:18;;;;;;;7.50;2.80;;;;;;;;;;5063894;28;20482;-71
2023/08/16 06:21:45;;;;;;;3.93;2.87;;;;;;;;;;5069173;28;20465;-71
2023/08/16 06:24:12;;;;;;;3.50;2.27;;;;;;;;;;5070295;28;20503;-70
2023/08/16 06:26:39;;;;;;;3.30;2.57;;;;;;;;;;5068385;28;20469;-70
2023/08/16 06:29:07;;;;;;;3.50;2.30;;;;;;;;;;5067083;28;20464;-70
2023/08/16 06:31:34;;;;;;;5.00;2.70;;;;;;;;;;5069317;28;20981;-69
2023/08/16 06:34:01;;;;;;;4.77;3.23;;;;;;;;;;5070099;28;20476;-69
2023/08/16 06:36:30;;;;;;;4.33;2.90;;;;;;;;;;5050439;28;20450;-71
2023/08/16 06:38:57;;;;;;;4.20;2.50;;;;;;;;;;5070587;28;20473;-73
2023/08/16 06:41:24;;;;;;;6.13;2.97;;;;;;;;;;5053752;28;21097;-71
2023/08/16 06:43:51;;;;;;;4.93;2.60;;;;;;;;;;5063271;28;20466;-68
2023/08/16 06:46:18;;;;;;;5.37;3.37;;;;;;;;;;5066861;28;20955;-68
2023/08/16 06:48:47;;;;;;;3.90;2.87;;;;;;;;;;5067047;28;20546;-68
2023/08/16 06:51:15;;;;;;;4.30;2.70;;;;;;;;;;5068656;28;20555;-68
2023/08/16 06:53:45;;;;;;;4.50;2.70;;;;;;;;;;5072326;28;20525;-69
2023/08/16 06:56:12;;;;;;;6.00;3.50;;;;;;;;;;5068488;28;20889;-66
2023/08/16 06:58:41;;;;;;;3.70;3.00;;;;;;;;;;5065858;28;20904;-68
2023/08/16 07:01:09;;;;;;;4.77;2.87;;;;;;;;;;5063976;28;20798;-68
2023/08/16 07:03:36;;;;;;;6.53;3.37;;;;;;;;;;5068848;28;20460;-70
2023/08/16 07:06:03;;;;;;;4.27;2.80;;;;;;;;;;5065275;28;20446;-71
2023/08/16 07:08:30;;;;;;;4.90;3.33;;;;;;;;;;5071803;28;20540;-70
2023/08/16 07:10:59;;;;;;;4.63;3.10;;;;;;;;;;5063066;28;20472;-70
2023/08/16 07:13:26;;;;;;;4.60;2.97;;;;;;;;;;5062435;28;20473;-70
2023/08/16 07:15:53;;;;;;;3.40;2.20;;;;;;;;;;5061636;28;20879;-72
2023/08/16 07:18:20;;;;;;;4.37;2.57;;;;;;;;;;5067405;28;20465;-70
2023/08/16 07:20:47;;;;;;;12.00;3.17;;;;;;;;;;5068094;28;20460;-70
2023/08/16 07:23:14;;;;;;;4.00;3.00;;;;;;;;;;5071926;28;20902;-71
2023/08/16 07:25:41;;;;;;;4.20;2.73;;;;;;;;;;5072154;28;20800;-72
2023/08/16 07:28:09;;;;;;;4.63;3.20;;;;;;;;;;5072549;28;20507;-71
2023/08/16 07:30:37;;;;;;;4.10;2.57;;;;;;;;;;5067495;28;20461;-72
2023/08/16 07:33:05;;;;;;;8.20;2.57;;;;;;;;;;5071799;28;20527;-71
2023/08/16 07:35:32;;;;;;;4.73;3.33;;;;;;;;;;5071454;28;20460;-71
2023/08/16 07:38:01;;;;;;;3.60;2.60;;;;;;;;;;5071914;28;20465;-71
2023/08/16 07:40:28;;;;;;;4.37;2.67;;;;;;;;;;5069947;28;20457;-72
2023/08/16 07:42:56;;;;;;;3.80;2.73;;;;;;;;;;5063567;28;21004;-71
2023/08/16 07:45:24;;;;;;;8.40;3.90;;;;;;;;;;5067333;28;20465;-71
2023/08/16 07:47:51;;;;;;;4.00;2.77;;;;;;;;;;5072484;28;20515;-71
2023/08/16 07:50:18;;;;;;;4.77;3.20;;;;;;;;;;5069638;28;20457;-71
2023/08/16 07:52:46;;;;;;;4.33;2.73;;;;;;;;;;5071510;28;20540;-70
2023/08/16 07:55:13;;;;;;;3.80;3.00;;;;;;;;;;5072983;28;20463;-72
2023/08/16 07:57:40;;;;;;;3.57;2.73;;;;;;;;;;5066584;28;20448;-72
2023/08/16 08:00:12;;;;;;;5.80;3.50;;;;;;;;;;5064838;28;20462;-69
2023/08/16 08:02:40;;;;;;;4.87;3.10;;;;;;;;;;5072713;28;20839;-71
2023/08/16 08:05:08;;;;;;;5.70;3.23;;;;;;;;;;5071940;28;20441;-72
2023/08/16 08:07:36;;;;;;;4.77;2.77;;;;;;;;;;5099180;22;20484;-71
2023/08/16 08:10:03;;;;;;;4.67;3.40;;;;;;;;;;5090809;28;20505;-72
2023/08/16 08:12:31;;;;;;;3.93;2.80;;;;;;;;;;5073293;28;20460;-72
2023/08/16 08:14:58;;;;;;;4.17;3.40;;;;;;;;;;5088641;28;20456;-71
2023/08/16 08:17:25;;;;;;;7.60;3.07;;;;;;;;;;5086889;28;20434;-72
2023/08/16 08:19:53;;;;;;;5.37;3.13;;;;;;;;;;5088879;28;20476;-72
2023/08/16 08:22:20;;;;;;;5.70;3.83;;;;;;;;;;5089333;28;20460;-71
2023/08/16 08:24:47;;;;;;;5.10;3.80;;;;;;;;;;5091352;28;20432;-72
2023/08/16 08:27:14;;;;;;;7.00;3.20;;;;;;;;;;5087671;28;20440;-72
2023/08/16 08:29:41;;;;;;;4.93;3.20;;;;;;;;;;5088461;28;20453;-71
2023/08/16 08:32:08;;;;;;;4.43;3.20;;;;;;;;;;5088178;28;20452;-71
2023/08/16 08:34:36;;;;;;;4.40;3.20;;;;;;;;;;5091331;28;20436;-71
2023/08/16 08:37:04;;;;;;;5.30;3.73;;;;;;;;;;5090683;28;20792;-72
2023/08/16 08:39:33;;;;;;;4.77;3.70;;;;;;;;;;5090499;28;21093;-72
2023/08/16 08:42:00;;;;;;;3.93;3.40;;;;;;;;;;5089391;28;20460;-72
2023/08/16 08:44:28;;;;;;;5.00;3.20;;;;;;;;;;5091826;28;20435;-72
2023/08/16 08:46:55;;;;;;;4.30;3.77;;;;;;;;;;5090710;28;20460;-72
2023/08/16 08:49:23;;;;;;;4.20;3.20;;;;;;;;;;5089527;28;20471;-72
2023/08/16 08:51:51;;;;;;;4.53;3.77;;;;;;;;;;5091639;28;20453;-72
2023/08/16 08:54:19;;;;;;;4.73;3.30;;;;;;;;;;5094793;28;20435;-72
2023/08/16 08:56:46;;;;;;;4.13;3.30;;;;;;;;;;5076387;28;20992;-72
2023/08/16 08:59:14;;;;;;;6.00;3.67;;;;;;;;;;5094518;28;20476;-72
2023/08/16 09:01:43;;;;;;;4.93;3.73;;;;;;;;;;5089803;28;20563;-72
2023/08/16 09:04:11;;;;;;;4.20;3.40;;;;;;;;;;5092675;28;20485;-72
2023/08/16 09:06:39;;;;;;;4.37;3.30;;;;;;;;;;5091765;28;20444;-72
2023/08/16 09:09:07;;;;;;;4.53;3.80;;;;;;;;;;5092984;28;20831;-72
2023/08/16 09:11:35;;;;;;;5.13;3.73;;;;;;;;;;5088666;28;20460;-72
2023/08/16 09:14:04;;;;;;;6.13;3.40;;;;;;;;;;5094738;28;20934;-72
2023/08/16 09:16:31;;;;;;;4.47;3.33;;;;;;;;;;5091060;28;20467;-72
2023/08/16 09:18:58;;;;;;;3.80;2.73;;;;;;;;;;5094177;28;20479;-72
2023/08/16 09:21:28;;;;;;;4.17;3.17;;;;;;;;;;5087461;28;20472;-72
2023/08/16 09:23:59;;;;;;;5.63;3.37;;;;;;;;;;5093881;28;20444;-71
2023/08/16 09:26:28;;;;;;;5.80;3.67;;;;;;;;;;5094035;28;20445;-72
2023/08/16 09:29:02;;;;;;;5.00;3.30;;;;;;;;;;5089341;28;20428;-72
2023/08/16 09:31:32;;;;;;;5.77;3.23;;;;;;;;;;5086296;28;20522;-72
2023/08/16 09:34:00;;;;;;;5.00;3.37;;;;;;;;;;5094121;28;20448;-72
2023/08/16 09:36:29;;;;;;;4.63;3.50;;;;;;;;;;5088474;28;20543;-72
2023/08/16 09:39:00;;;;;;;4.53;3.60;;;;;;;;;;5094719;28;20487;-72
2023/08/16 09:41:27;;;;;;;4.50;3.67;;;;;;;;;;5090294;28;20479;-72
2023/08/16 09:44:02;;;;;;;4.23;3.50;;;;;;;;;;5093993;28;20459;-72
2023/08/16 09:46:33;;;;;;;4.60;3.53;;;;;;;;;;5091353;28;20459;-72
2023/08/16 09:49:04;;;;;;;4.80;3.30;;;;;;;;;;5092721;28;20436;-71
2023/08/16 09:51:33;;;;;;;5.60;3.43;;;;;;;;;;5088151;28;20479;-72
2023/08/16 09:54:00;;;;;;;5.00;4.07;;;;;;;;;;5093673;28;20463;-72
2023/08/16 09:56:29;;;;;;;5.00;4.27;;;;;;;;;;5093651;28;20431;-72
2023/08/16 09:58:56;;;;;;;5.20;4.20;;;;;;;;;;5092590;28;20475;-72
2023/08/16 10:01:24;;;;;;;4.50;3.00;;;;;;;;;;5087853;28;20459;-72
2023/08/16 10:03:53;;;;;;;5.07;3.30;;;;;;;;;;5093792;28;20440;-72
2023/08/16 10:06:23;;;;;;;3.87;3.40;;;;;;;;;;5092740;28;20432;-72
2023/08/16 10:08:52;;;;;;;4.90;3.27;;;;;;;;;;5089135;28;20478;-72
2023/08/16 10:11:19;;;;;;;4.23;3.23;;;;;;;;;;5088527;28;20452;-72
2023/08/16 10:13:46;;;;;;;3.90;3.00;;;;;;;;;;5093712;28;20926;-72
2023/08/16 10:16:15;;;;;;;4.13;3.00;;;;;;;;;;5091615;28;20456;-73
2023/08/16 10:18:43;;;;;;;5.20;4.00;;;;;;;;;;5089435;28;20471;-72
2023/08/16 10:21:13;;;;;;;6.33;3.60;;;;;;;;;;5088629;28;20456;-73
2023/08/16 10:23:41;;;;;;;3.83;3.13;;;;;;;;;;5091270;28;20456;-73
2023/08/16 10:26:10;;;;;;;4.83;3.70;;;;;;;;;;5092359;28;20527;-72
2023/08/16 10:28:38;;;;;;;6.77;3.80;;;;;;;;;;5093080;28;20432;-72
2023/08/16 10:31:06;;;;;;;4.47;3.67;;;;;;;;;;5088928;28;20460;-72
2023/08/16 10:33:39;;;;;;;4.33;3.27;;;;;;;;;;5097077;28;20436;-73
2023/08/16 10:36:07;;;;;;;5.20;3.70;;;;;;;;;;5092539;28;20444;-72
2023/08/16 10:38:38;;;;;;;4.27;3.87;;;;;;;;;;5092914;28;20585;-73
2023/08/16 10:41:11;;;;;;;3.60;3.00;;;;;;;;;;5090587;28;20656;-71
2023/08/16 10:43:38;;;;;;;6.37;3.57;;;;;;;;;;5088966;28;20198;-70
2023/08/16 10:46:05;;;;;;;4.33;3.67;;;;;;;;;;5086842;28;20202;-72
2023/08/16 10:48:33;;;;;;;5.57;3.80;;;;;;;;;;5092908;28;20733;-72
2023/08/16 10:51:03;;;;;;;4.40;3.70;;;;;;;;;;5087458;28;20198;-73
2023/08/16 10:53:31;;;;;;;5.90;4.20;;;;;;;;;;5092623;28;20190;-73
2023/08/16 10:55:59;;;;;;;6.40;4.03;;;;;;;;;;5088884;28;20281;-72
2023/08/16 10:58:28;;;;;;;4.40;3.67;;;;;;;;;;5091945;28;20198;-72
2023/08/16 11:00:59;;;;;;;4.50;3.27;;;;;;;;;;5086843;28;20201;-72
2023/08/16 11:03:34;;;;;;;4.37;3.30;;;;;;;;;;5089311;28;20677;-72
2023/08/16 11:06:02;;;;;;;4.10;3.70;;;;;;;;;;5092852;28;20201;-73
2023/08/16 11:08:31;;;;;;;6.20;3.90;;;;;;;;;;5092156;28;20202;-72
2023/08/16 11:11:00;;;;;;;4.00;3.30;;;;;;;;;;5087426;28;20631;-72
2023/08/16 11:13:29;;;;;;;7.70;4.00;;;;;;;;;;5092493;28;20245;-72
2023/08/16 11:15:56;;;;;;;4.67;3.97;;;;;;;;;;5087033;28;20248;-72
2023/08/16 11:18:27;;;;;;;8.60;3.93;;;;;;;;;;5091726;28;20194;-72
2023/08/16 11:20:54;;;;;;;4.93;3.72;;;;;;;;;;5091294;28;20652;-72
2023/08/16 11:23:21;;;;;;;4.20;3.25;;;;;;;;;;5092250;28;20218;-72
2023/08/16 11:25:49;;;;;;;4.93;3.30;;;;;;;;;;5089887;28;20209;-72
2023/08/16 11:28:19;;;;;;;4.35;3.88;;;;;;;;;;5084345;28;20553;-72
2023/08/16 11:30:46;;;;;;;4.47;4.05;;;;;;;;;;5086655;28;20361;-72
2023/08/16 11:33:16;;;;;;;4.38;3.60;;;;;;;;;;5091044;28;20596;-72
2023/08/16 11:35:44;;;;;;;5.00;4.13;;;;;;;;;;5087727;28;20204;-72
2023/08/16 11:38:14;;;;;;;5.28;4.00;;;;;;;;;;5089618;28;20213;-73
2023/08/16 11:40:42;;;;;;;5.72;4.22;;;;;;;;;;5092138;28;20263;-73
2023/08/16 11:43:09;;;;;;;3.83;3.47;;;;;;;;;;5087593;28;20209;-73
2023/08/16 11:45:38;;;;;;;4.15;3.70;;;;;;;;;;5090916;28;20198;-72
2023/08/16 11:48:05;;;;;;;4.00;3.33;;;;;;;;;;5089758;28;20292;-73
2023/08/16 11:50:34;;;;;;;4.88;3.65;;;;;;;;;;5091959;28;20265;-72
2023/08/16 11:53:02;;;;;;;5.20;3.83;;;;;;;;;;5087424;28;20209;-72
2023/08/16 11:55:29;;;;;;;4.88;4.30;;;;;;;;;;5091427;28;20204;-73
2023/08/16 11:58:03;;;;;;;3.67;3.33;;;;;;;;;;5090222;28;20252;-73
2023/08/16 12:00:31;;;;;;;7.55;3.60;;;;;;;;;;5092155;28;20214;-73
2023/08/16 12:03:02;;;;;;;3.67;3.17;;;;;;;;;;5090339;28;20217;-73
2023/08/16 12:05:35;;;;;;;4.22;3.20;;;;;;;;;;5088390;28;20220;-73
2023/08/16 12:08:04;;;;;;;4.25;3.33;;;;;;;;;;5087421;28;20205;-72
2023/08/16 12:10:33;;;;;;;5.22;3.45;;;;;;;;;;5090990;28;20205;-72
2023/08/16 12:13:00;;;;;;;3.70;3.28;;;;;;;;;;5091194;28;20659;-73
2023/08/16 12:15:28;;;;;;;3.67;3.38;;;;;;;;;;5091426;28;20197;-73
2023/08/16 12:17:56;;;;;;;3.85;3.15;;;;;;;;;;5086720;28;20214;-73
2023/08/16 12:20:25;;;;;;;3.75;3.35;;;;;;;;;;5091329;28;20713;-73
2023/08/16 12:22:52;;;;;;;4.22;3.35;;;;;;;;;;5092435;28;20305;-73
2023/08/16 12:25:20;;;;;;;5.65;3.85;;;;;;;;;;5091254;28;20190;-72
2023/08/16 12:27:47;;;;;;;4.40;3.47;;;;;;;;;;5093489;28;20194;-72
2023/08/16 12:30:14;;;;;;;3.83;3.00;;;;;;;;;;5094567;28;20190;-72
2023/08/16 12:32:42;;;;;;;4.60;3.55;;;;;;;;;;5084337;28;20214;-72
2023/08/16 12:35:09;;;;;;;4.40;3.72;;;;;;;;;;5075436;28;20200;-72
2023/08/16 12:37:38;;;;;;;4.18;3.13;;;;;;;;;;5077638;28;20206;-72
2023/08/16 12:40:09;;;;;;;4.18;3.75;;;;;;;;;;5096905;28;20256;-72
2023/08/16 12:42:36;;;;;;;3.90;3.35;;;;;;;;;;5090048;28;20210;-72
2023/08/16 12:45:03;;;;;;;4.60;3.25;;;;;;;;;;5094766;28;20208;-73
2023/08/16 12:47:30;;;;;;;4.45;3.33;;;;;;;;;;5089378;28;20194;-72
2023/08/16 12:49:57;;;;;;;4.22;3.58;;;;;;;;;;5096249;28;20205;-72
2023/08/16 12:52:25;;;;;;;3.90;3.30;;;;;;;;;;5092395;28;20222;-72
2023/08/16 12:54:53;;;;;;;3.50;2.97;;;;;;;;;;5090555;28;20644;-72
2023/08/16 12:57:22;;;;;;;3.78;3.22;;;;;;;;;;5095994;28;20226;-72
2023/08/16 12:59:50;;;;;;;5.13;3.72;;;;;;;;;;5095559;28;20217;-72
2023/08/16 13:02:17;;;;;;;3.88;3.25;;;;;;;;;;5088438;28;20214;-72
2023/08/16 13:04:44;;;;;;;5.10;3.88;;;;;;;;;;5088872;28;20289;-72
2023/08/16 13:07:13;;;;;;;3.75;3.28;;;;;;;;;;5095351;28;20709;-72
2023/08/16 13:09:40;;;;;;;3.63;3.30;;;;;;;;;;5077344;28;20205;-72
2023/08/16 13:12:10;;;;;;;3.90;3.50;;;;;;;;;;5075252;28;20267;-71
2023/08/16 13:14:37;;;;;;;3.45;2.92;;;;;;;;;;5090637;28;20251;-72
2023/08/16 13:17:04;;;;;;;4.40;3.47;;;;;;;;;;5092447;28;20793;-72
2023/08/16 13:19:31;;;;;;;3.88;3.35;;;;;;;;;;5090256;28;20538;-71
2023/08/16 13:21:58;;;;;;;4.80;2.85;;;;;;;;;;5095779;28;20236;-72
2023/08/16 13:24:26;;;;;;;3.70;3.03;;;;;;;;;;5089225;28;20201;-72
2023/08/16 13:26:53;;;;;;;3.05;2.53;;;;;;;;;;5095805;28;20206;-71
2023/08/16 13:29:22;;;;;;;3.03;2.72;;;;;;;;;;5096289;28;20198;-72
2023/08/16 13:31:49;;;;;;;3.05;2.47;;;;;;;;;;5095561;28;20222;-71
2023/08/16 13:34:16;;;;;;;2.85;2.15;;;;;;;;;;5089484;28;20198;-72
2023/08/16 13:36:43;;;;;;;4.57;2.63;;;;;;;;;;5094176;28;20194;-72
2023/08/16 13:39:10;;;;;;;3.58;3.28;;;;;;;;;;5093593;28;20202;-74
2023/08/16 13:41:37;;;;;;;3.40;2.67;;;;;;;;;;5094089;28;20222;-73
2023/08/16 13:44:04;;;;;;;2.83;2.30;;;;;;;;;;5089246;28;20194;-71
2023/08/16 13:46:37;;;;;;;3.72;2.72;;;;;;;;;;5094477;28;20202;-72
2023/08/16 13:49:04;;;;;;;3.03;2.60;;;;;;;;;;5089153;28;20683;-73
2023/08/16 13:51:31;;;;;;;3.55;2.38;;;;;;;;;;5093951;28;20214;-73
2023/08/16 13:53:58;;;;;;;3.28;2.20;;;;;;;;;;5086567;28;20552;-72
2023/08/16 13:56:26;;;;;;;3.92;3.28;;;;;;;;;;5092519;28;20671;-73
2023/08/16 13:59:24;;;;;;;3.00;2.25;;;;;;;;;;5093897;28;20679;-72
2023/08/16 14:01:53;;;;;;;3.17;2.45;;;;;;;;;;5091123;28;20241;-72
2023/08/16 14:04:20;;;;;;;2.53;2.00;;;;;;;;;;5089508;28;20198;-73
2023/08/16 14:06:47;;;;;;;3.35;2.83;;;;;;;;;;5116921;22;20194;-72
2023/08/16 14:09:14;;;;;;;3.75;2.45;;;;;;;;;;5085583;28;20737;-73
2023/08/16 14:11:42;;;;;;;2.80;2.22;;;;;;;;;;5089472;28;20213;-72
2023/08/16 14:14:09;;;;;;;2.78;2.28;;;;;;;;;;5103420;28;20193;-72
2023/08/16 14:16:37;;;;;;;4.53;2.40;;;;;;;;;;5101474;28;20208;-73
2023/08/16 14:19:06;;;;;;;2.63;2.08;;;;;;;;;;5108449;27;20196;-71
2023/08/16 14:21:33;;;;;;;3.33;2.50;;;;;;;;;;5106046;27;20221;-71
2023/08/16 14:24:00;;;;;;;3.63;2.17;;;;;;;;;;5101766;27;20205;-71
2023/08/16 14:26:28;;;;;;;2.72;2.45;;;;;;;;;;5104403;28;20189;-71
2023/08/16 14:28:55;;;;;;;2.45;2.03;;;;;;;;;;5106212;27;20194;-71
2023/08/16 14:31:22;;;;;;;4.22;2.22;;;;;;;;;;5102237;28;20197;-71
2023/08/16 14:33:49;;;;;;;3.95;3.22;;;;;;;;;;5084844;28;20251;-71
2023/08/16 14:36:18;;;;;;;6.75;2.83;;;;;;;;;;5106646;28;20675;-71
2023/08/16 14:38:45;;;;;;;3.00;2.05;;;;;;;;;;5106056;28;20197;-72
2023/08/16 14:41:12;;;;;;;3.38;3.08;;;;;;;;;;5108752;27;20213;-72
2023/08/16 14:43:39;;;;;;;2.13;1.88;;;;;;;;;;5109987;27;20193;-71
2023/08/16 14:46:06;;;;;;;2.80;2.40;;;;;;;;;;5106242;27;20205;-72